Strona główna
METAR-TAF:

METAR-TAF

Lotnisko :

Port lotniczy Locarno

Locarno, Szwajcaria

Szerokość geograficzna: 46-09-55N, Długość geograficzna: 8-52-40E, wysokość: 198 m

Aktualna obserwacja pogody

Raport powstał 37 minut temu, godzina 06:50 UTC
Wiatr 2 kt z kierunków zmiennych
Temperatura 15°C
Wilgotność 72%
Ciśnienie 1026 hPa
Widzialność 10 km lub więcej
Brak chmur poniżej 1500 m i brak chmur cumulonimbus

METAR: LSZL 280650Z VRB02KT CAVOK 15/10 Q1026 RMK BLU

czas: 09:27 (07:27 UTC)

Prognoza

Raport powstał 2 godziny i 2 minut temu, godzina 05:25 UTC
Prognoza ważna od 28 godzina 06 UTC do 28 godzina 15 UTC
Wiatr 5 kt od zachodnio-południowy zachód
Widzialność 10 km lub więcej
Brak chmur poniżej 1500 m i brak chmur cumulonimbus
Prawdopodobieństwo 40%
od 28 godzina 11 UTC do 28 godzina 15 UTC
Widzialność 10 km lub więcej
Mało chmury na wysokości 10000 ft

TAF: LSZL 280525Z 2806/2815 25005KT CAVOK PROB40 2811/2815 9999 FEW100

Obserwacja i prognoza pogody dla ponad 4000 lotnisk (raport METAR i TAF).

Dostępne stacje oznaczono żółtymi i czerwonymi punktami na mapie.

Najedź kursorem aby zobaczyć nazwę stacji.

Kliknij aby zobaczyć obserwacje i prognozy pogody.

Aby zmienić mapę: kliknij na zielony przycisk z czarnym krzyżykiem, aby powiększyć; na zielony przycisk z myślnikiem, aby pomniejszyć; na zielone strzałki, aby przejść do map sąsiednich.


METAR-TAF: